Time;durP1;ratioP1;P1;durP2;ratioP2;P2;SDS_P1;SDS_P2;PMS_P1;PMS_P2;Temp;Humidity;BMP_temperature;BMP_pressure;BME280_temperature;BME280_humidity;BME280_pressure;Samples;Min_cycle;Max_cycle;Signal;HPM_P1;HPM_P2
2023/09/11 00:02:14;;;;;;;61.67;6.60;;;;;;;;;;4952768;28;20460;-73
2023/09/11 00:04:42;;;;;;;61.20;6.40;;;;;;;;;;4952968;28;20448;-73
2023/09/11 00:07:09;;;;;;;59.97;4.97;;;;;;;;;;4952502;28;20477;-73
2023/09/11 00:09:36;;;;;;;60.63;5.60;;;;;;;;;;4952626;28;20550;-73
2023/09/11 00:12:03;;;;;;;60.27;5.00;;;;;;;;;;4952818;28;20456;-73
2023/09/11 00:14:30;;;;;;;58.83;4.33;;;;;;;;;;4952830;28;20543;-73
2023/09/11 00:16:57;;;;;;;59.83;5.10;;;;;;;;;;4956208;28;20477;-73
2023/09/11 00:19:25;;;;;;;57.67;3.30;;;;;;;;;;4956198;28;20969;-72
2023/09/11 00:21:53;;;;;;;57.67;4.00;;;;;;;;;;4956272;28;20448;-72
2023/09/11 00:24:20;;;;;;;59.27;4.03;;;;;;;;;;4956470;28;20457;-71
2023/09/11 00:26:47;;;;;;;59.27;4.60;;;;;;;;;;4955579;28;20465;-72
2023/09/11 00:29:14;;;;;;;57.17;3.10;;;;;;;;;;4943136;28;20458;-71
2023/09/11 00:31:41;;;;;;;58.07;3.80;;;;;;;;;;4943125;28;20449;-72
2023/09/11 00:34:08;;;;;;;57.40;3.37;;;;;;;;;;4949577;29;20933;-72
2023/09/11 00:36:35;;;;;;;59.10;4.43;;;;;;;;;;4938213;29;20495;-72
2023/09/11 00:39:04;;;;;;;56.80;2.80;;;;;;;;;;4952774;29;20467;-71
2023/09/11 00:41:31;;;;;;;57.87;2.73;;;;;;;;;;4936771;29;21009;-72
2023/09/11 00:43:58;;;;;;;56.77;2.90;;;;;;;;;;4937145;29;20476;-71
2023/09/11 00:46:25;;;;;;;58.03;3.10;;;;;;;;;;4955154;29;20469;-72
2023/09/11 00:48:53;;;;;;;57.60;3.53;;;;;;;;;;4955816;28;20449;-72
2023/09/11 00:51:21;;;;;;;57.70;3.77;;;;;;;;;;4945471;28;20450;-71
2023/09/11 00:53:48;;;;;;;57.40;2.97;;;;;;;;;;4946872;29;20755;-72
2023/09/11 00:56:16;;;;;;;57.10;2.60;;;;;;;;;;4936670;29;20993;-72
2023/09/11 00:58:44;;;;;;;57.00;2.70;;;;;;;;;;4937034;29;20542;-71
2023/09/11 01:01:11;;;;;;;56.80;2.40;;;;;;;;;;4936484;29;20489;-72
2023/09/11 01:03:39;;;;;;;57.60;3.10;;;;;;;;;;4937215;29;20542;-71
2023/09/11 01:06:07;;;;;;;57.40;3.13;;;;;;;;;;4936478;29;20476;-70
2023/09/11 01:08:34;;;;;;;56.90;2.53;;;;;;;;;;4936834;29;20465;-72
2023/09/11 01:11:01;;;;;;;57.23;3.00;;;;;;;;;;4936834;29;20445;-72
2023/09/11 01:13:30;;;;;;;57.63;3.23;;;;;;;;;;4955188;29;20538;-72
2023/09/11 01:16:01;;;;;;;57.10;2.90;;;;;;;;;;4955820;28;20789;-71
2023/09/11 01:18:30;;;;;;;57.00;2.70;;;;;;;;;;4955919;28;20446;-72
2023/09/11 01:21:06;;;;;;;56.57;2.50;;;;;;;;;;4955672;28;20860;-71
2023/09/11 01:23:44;;;;;;;58.20;3.90;;;;;;;;;;4956143;28;20441;-71
2023/09/11 01:26:19;;;;;;;57.57;3.10;;;;;;;;;;4955189;28;20500;-72
2023/09/11 01:29:11;;;;;;;56.97;2.70;;;;;;;;;;4956003;28;20441;-71
2023/09/11 01:31:40;;;;;;;57.80;3.57;;;;;;;;;;4945963;28;21007;-71
2023/09/11 01:34:07;;;;;;;58.37;2.80;;;;;;;;;;4955477;28;20449;-72
2023/09/11 01:36:34;;;;;;;57.60;3.50;;;;;;;;;;4955222;28;20472;-71
2023/09/11 01:39:02;;;;;;;57.20;3.20;;;;;;;;;;4955919;28;20856;-72
2023/09/11 01:41:33;;;;;;;57.00;3.17;;;;;;;;;;4955690;28;20515;-72
2023/09/11 01:44:01;;;;;;;56.93;2.93;;;;;;;;;;4955598;28;20449;-71
2023/09/11 01:46:29;;;;;;;57.80;3.53;;;;;;;;;;4955062;28;20461;-71
2023/09/11 01:48:58;;;;;;;58.27;3.30;;;;;;;;;;4955538;28;20479;-71
2023/09/11 01:51:26;;;;;;;57.60;3.67;;;;;;;;;;4955230;28;20448;-71
2023/09/11 01:53:53;;;;;;;57.97;3.43;;;;;;;;;;4955508;28;20452;-72
2023/09/11 01:56:20;;;;;;;57.03;2.97;;;;;;;;;;4955160;28;20476;-71
2023/09/11 01:58:47;;;;;;;58.20;3.50;;;;;;;;;;4955337;28;20452;-71
2023/09/11 02:01:14;;;;;;;57.30;3.43;;;;;;;;;;4955137;28;20488;-71
2023/09/11 02:03:41;;;;;;;57.10;3.20;;;;;;;;;;4955461;28;20459;-71
2023/09/11 02:06:10;;;;;;;56.87;2.77;;;;;;;;;;4954718;28;20473;-71
2023/09/11 02:08:37;;;;;;;57.00;2.90;;;;;;;;;;4955225;28;20556;-71
2023/09/11 02:11:04;;;;;;;57.30;3.10;;;;;;;;;;4955475;28;20806;-71
2023/09/11 02:13:31;;;;;;;57.50;3.10;;;;;;;;;;4955200;28;20467;-72
2023/09/11 02:15:58;;;;;;;57.67;3.47;;;;;;;;;;4954745;28;20477;-71
2023/09/11 02:18:25;;;;;;;57.50;3.00;;;;;;;;;;4955108;28;20467;-71
2023/09/11 02:20:52;;;;;;;57.50;3.60;;;;;;;;;;4955193;28;20824;-71
2023/09/11 02:23:22;;;;;;;57.00;3.07;;;;;;;;;;4955107;28;20453;-70
2023/09/11 02:25:50;;;;;;;56.90;2.77;;;;;;;;;;4955321;28;20480;-70
2023/09/11 02:28:17;;;;;;;56.73;2.90;;;;;;;;;;4946492;28;20501;-71
2023/09/11 02:33:47;;;;;;;57.60;3.30;;;;;;;;;;4935233;29;20401;-71
2023/09/11 02:36:14;;;;;;;57.27;3.10;;;;;;;;;;4938431;29;20474;-70
2023/09/11 02:38:42;;;;;;;57.17;3.40;;;;;;;;;;4954145;28;20898;-71
2023/09/11 02:41:09;;;;;;;57.37;3.00;;;;;;;;;;4941456;28;20583;-71
2023/09/11 02:43:36;;;;;;;57.17;2.80;;;;;;;;;;4943464;29;20457;-69
2023/09/11 02:46:03;;;;;;;57.30;3.27;;;;;;;;;;4944803;29;20477;-70
2023/09/11 02:48:31;;;;;;;59.00;3.83;;;;;;;;;;4946088;28;20448;-70
2023/09/11 02:50:58;;;;;;;56.67;2.63;;;;;;;;;;4939464;28;20458;-70
2023/09/11 02:53:25;;;;;;;57.50;3.13;;;;;;;;;;4934961;29;20896;-71
2023/09/11 02:55:54;;;;;;;57.67;3.40;;;;;;;;;;4934439;29;20473;-70
2023/09/11 02:58:21;;;;;;;56.80;3.00;;;;;;;;;;4935226;29;20454;-70
2023/09/11 03:00:48;;;;;;;56.80;2.90;;;;;;;;;;4934768;29;20492;-71
2023/09/11 03:03:15;;;;;;;57.17;3.03;;;;;;;;;;4934537;29;20906;-70
2023/09/11 03:05:42;;;;;;;57.00;2.87;;;;;;;;;;4934701;29;20939;-70
2023/09/11 03:08:11;;;;;;;57.20;3.10;;;;;;;;;;4944311;29;20829;-67
2023/09/11 03:10:38;;;;;;;57.57;2.87;;;;;;;;;;4935052;29;20442;-71
2023/09/11 03:13:07;;;;;;;57.00;3.00;;;;;;;;;;4935104;29;20450;-70
2023/09/11 03:15:34;;;;;;;58.87;3.30;;;;;;;;;;4953792;29;20446;-70
2023/09/11 03:18:02;;;;;;;56.97;2.80;;;;;;;;;;4953482;28;20932;-69
2023/09/11 03:20:29;;;;;;;57.30;2.70;;;;;;;;;;4953899;28;20492;-70
2023/09/11 03:22:56;;;;;;;58.73;4.20;;;;;;;;;;4954485;28;20452;-70
2023/09/11 03:25:25;;;;;;;57.40;3.43;;;;;;;;;;4953912;28;20449;-70
2023/09/11 03:27:53;;;;;;;57.43;3.97;;;;;;;;;;4953579;28;20504;-70
2023/09/11 03:30:21;;;;;;;58.10;3.50;;;;;;;;;;4953832;28;20453;-69
2023/09/11 03:32:48;;;;;;;57.00;3.13;;;;;;;;;;4953883;28;20449;-70
2023/09/11 03:35:15;;;;;;;56.97;2.60;;;;;;;;;;4954006;28;20455;-71
2023/09/11 03:37:42;;;;;;;57.20;3.23;;;;;;;;;;4953419;28;20472;-71
2023/09/11 03:40:13;;;;;;;56.87;2.57;;;;;;;;;;4954069;28;20475;-71
2023/09/11 03:42:40;;;;;;;56.97;2.63;;;;;;;;;;4953621;28;20467;-70
2023/09/11 03:45:08;;;;;;;57.70;3.77;;;;;;;;;;4953805;28;20451;-71
2023/09/11 03:47:36;;;;;;;56.93;2.93;;;;;;;;;;4953106;28;20468;-71
2023/09/11 03:50:04;;;;;;;57.70;2.90;;;;;;;;;;4954639;28;20448;-71
2023/09/11 03:52:31;;;;;;;57.67;3.20;;;;;;;;;;4957606;28;20988;-71
2023/09/11 03:54:58;;;;;;;56.90;2.93;;;;;;;;;;4957872;28;20448;-70
2023/09/11 03:57:25;;;;;;;59.57;2.80;;;;;;;;;;4957353;28;20471;-70
2023/09/11 03:59:52;;;;;;;57.00;3.40;;;;;;;;;;4957659;28;20452;-71
2023/09/11 04:02:19;;;;;;;57.40;3.03;;;;;;;;;;4957374;28;20857;-71
2023/09/11 04:04:48;;;;;;;57.80;3.80;;;;;;;;;;4957230;28;20459;-70
2023/09/11 04:07:15;;;;;;;57.40;3.67;;;;;;;;;;4957033;28;20464;-70
2023/09/11 04:09:42;;;;;;;57.30;3.30;;;;;;;;;;4957800;28;20821;-70
2023/09/11 04:12:14;;;;;;;57.67;3.13;;;;;;;;;;4957530;28;20452;-71
2023/09/11 04:14:41;;;;;;;56.90;3.10;;;;;;;;;;4957353;28;20460;-69
2023/09/11 04:17:10;;;;;;;57.20;3.10;;;;;;;;;;4956927;28;20484;-70
2023/09/11 04:19:37;;;;;;;57.10;2.93;;;;;;;;;;4957485;28;20942;-70
2023/09/11 04:22:06;;;;;;;57.17;3.00;;;;;;;;;;4957192;28;20484;-70
2023/09/11 04:24:33;;;;;;;57.00;2.63;;;;;;;;;;4956613;28;20457;-69
2023/09/11 04:27:00;;;;;;;60.17;4.20;;;;;;;;;;4956272;28;20483;-70
2023/09/11 04:29:27;;;;;;;57.70;2.93;;;;;;;;;;4942685;28;20802;-68
2023/09/11 04:31:54;;;;;;;57.87;3.70;;;;;;;;;;4943752;28;20445;-71
2023/09/11 04:34:21;;;;;;;57.77;3.77;;;;;;;;;;4942648;29;20445;-70
2023/09/11 04:36:48;;;;;;;58.10;3.80;;;;;;;;;;4948512;28;20479;-70
2023/09/11 04:39:16;;;;;;;57.30;3.40;;;;;;;;;;4948485;28;20464;-71
2023/09/11 04:41:44;;;;;;;57.47;3.10;;;;;;;;;;4956665;28;20871;-71
2023/09/11 04:44:11;;;;;;;56.90;2.70;;;;;;;;;;4956608;28;20449;-70
2023/09/11 04:46:38;;;;;;;57.67;3.10;;;;;;;;;;4956102;28;20478;-71
2023/09/11 04:49:05;;;;;;;57.17;3.03;;;;;;;;;;4957486;28;20453;-70
2023/09/11 04:51:33;;;;;;;57.07;2.93;;;;;;;;;;4953908;28;20456;-70
2023/09/11 04:54:00;;;;;;;57.80;3.20;;;;;;;;;;4944717;29;20829;-71
2023/09/11 04:56:28;;;;;;;57.30;2.80;;;;;;;;;;4936464;29;20474;-71
2023/09/11 04:58:55;;;;;;;56.83;2.80;;;;;;;;;;4937006;29;20449;-71
2023/09/11 05:01:22;;;;;;;57.43;3.10;;;;;;;;;;4936088;29;21009;-70
2023/09/11 05:03:49;;;;;;;56.73;2.63;;;;;;;;;;4937144;29;20454;-71
2023/09/11 05:06:16;;;;;;;56.83;2.83;;;;;;;;;;4936264;29;20857;-71
2023/09/11 05:08:43;;;;;;;57.20;2.90;;;;;;;;;;4936851;29;20516;-70
2023/09/11 05:11:11;;;;;;;57.57;3.27;;;;;;;;;;4936524;29;20946;-70
2023/09/11 05:13:39;;;;;;;57.97;3.57;;;;;;;;;;4955179;29;20475;-69
2023/09/11 05:16:06;;;;;;;57.30;3.13;;;;;;;;;;4955482;28;20468;-71
2023/09/11 05:18:33;;;;;;;56.70;2.90;;;;;;;;;;4955437;28;20464;-70
2023/09/11 05:21:00;;;;;;;58.17;3.77;;;;;;;;;;4955447;28;20551;-70
2023/09/11 05:23:27;;;;;;;56.87;2.90;;;;;;;;;;4955389;28;20460;-71
2023/09/11 05:25:55;;;;;;;56.70;2.90;;;;;;;;;;4955124;28;20473;-71
2023/09/11 05:28:22;;;;;;;57.37;3.07;;;;;;;;;;4938769;28;20454;-71
2023/09/11 05:30:51;;;;;;;57.10;3.37;;;;;;;;;;4948365;29;20468;-71
2023/09/11 05:33:18;;;;;;;56.80;2.70;;;;;;;;;;4955200;28;20464;-69
2023/09/11 05:35:46;;;;;;;57.50;3.87;;;;;;;;;;4954841;28;20449;-71
2023/09/11 05:38:13;;;;;;;56.80;2.70;;;;;;;;;;4955176;28;20456;-71
2023/09/11 05:40:40;;;;;;;57.03;3.10;;;;;;;;;;4955184;28;20541;-71
2023/09/11 05:43:07;;;;;;;57.13;3.10;;;;;;;;;;4955392;28;20496;-71
2023/09/11 05:45:34;;;;;;;58.03;3.60;;;;;;;;;;4954810;28;20460;-71
2023/09/11 05:48:03;;;;;;;57.10;2.80;;;;;;;;;;4954736;28;20448;-71
2023/09/11 05:50:30;;;;;;;57.43;3.20;;;;;;;;;;4954771;28;20457;-71
2023/09/11 05:52:57;;;;;;;58.00;4.13;;;;;;;;;;4954894;28;20441;-70
2023/09/11 05:55:24;;;;;;;57.87;3.63;;;;;;;;;;4954291;28;20468;-70
2023/09/11 05:57:51;;;;;;;57.20;3.07;;;;;;;;;;4954652;28;20475;-71
2023/09/11 06:00:19;;;;;;;57.60;3.10;;;;;;;;;;4954474;28;20453;-71
2023/09/11 06:02:46;;;;;;;58.60;4.80;;;;;;;;;;4954943;28;20485;-71
2023/09/11 06:05:15;;;;;;;57.10;2.87;;;;;;;;;;4954809;28;20449;-70
2023/09/11 06:07:43;;;;;;;57.37;3.60;;;;;;;;;;4954220;28;20571;-71
2023/09/11 06:10:10;;;;;;;57.23;3.40;;;;;;;;;;4954348;28;20449;-71
2023/09/11 06:12:37;;;;;;;57.50;3.23;;;;;;;;;;4953501;28;20813;-71
2023/09/11 06:15:05;;;;;;;57.00;3.33;;;;;;;;;;4954176;28;20449;-71
2023/09/11 06:17:32;;;;;;;56.87;2.70;;;;;;;;;;4954487;28;20464;-70
2023/09/11 06:19:59;;;;;;;57.23;3.00;;;;;;;;;;4954551;28;20445;-70
2023/09/11 06:22:28;;;;;;;57.10;3.30;;;;;;;;;;4954405;28;20503;-71
2023/09/11 06:24:55;;;;;;;56.67;3.30;;;;;;;;;;4954313;28;20929;-70
2023/09/11 06:27:22;;;;;;;57.13;2.80;;;;;;;;;;4953567;28;20796;-71
2023/09/11 06:29:49;;;;;;;57.13;3.57;;;;;;;;;;4948363;28;20512;-71
2023/09/11 06:32:16;;;;;;;56.87;2.97;;;;;;;;;;4943137;29;20446;-71
2023/09/11 06:34:43;;;;;;;57.20;3.17;;;;;;;;;;4946313;29;20450;-71
2023/09/11 06:37:10;;;;;;;57.47;4.07;;;;;;;;;;4939591;28;20509;-71
2023/09/11 06:39:39;;;;;;;57.80;4.83;;;;;;;;;;4934879;29;20470;-71
2023/09/11 06:42:06;;;;;;;58.23;3.50;;;;;;;;;;4939195;29;20489;-70
2023/09/11 06:44:33;;;;;;;57.40;3.67;;;;;;;;;;4943008;29;20534;-71
2023/09/11 06:47:00;;;;;;;56.90;3.00;;;;;;;;;;4934408;29;20989;-71
2023/09/11 06:49:27;;;;;;;57.47;2.97;;;;;;;;;;4936030;29;20454;-71
2023/09/11 06:51:54;;;;;;;58.13;3.97;;;;;;;;;;4954550;28;20445;-71
2023/09/11 06:54:23;;;;;;;56.87;3.23;;;;;;;;;;4954219;28;20776;-71
2023/09/11 06:56:51;;;;;;;57.67;3.47;;;;;;;;;;4954005;28;20551;-71
2023/09/11 06:59:18;;;;;;;56.70;2.67;;;;;;;;;;4954094;28;20453;-70
2023/09/11 07:01:45;;;;;;;59.53;4.30;;;;;;;;;;4950516;28;20503;-72
2023/09/11 07:04:13;;;;;;;56.73;2.70;;;;;;;;;;4942387;29;20458;-71
2023/09/11 07:06:40;;;;;;;58.00;3.37;;;;;;;;;;4934182;29;21030;-72
2023/09/11 07:09:07;;;;;;;57.00;3.33;;;;;;;;;;4934530;29;20461;-71
2023/09/11 07:11:34;;;;;;;57.10;2.80;;;;;;;;;;4934882;29;20767;-71
2023/09/11 07:14:05;;;;;;;57.93;3.50;;;;;;;;;;4935332;29;20450;-71
2023/09/11 07:16:32;;;;;;;57.97;4.47;;;;;;;;;;4951606;29;20479;-71
2023/09/11 07:18:59;;;;;;;57.00;2.90;;;;;;;;;;4954074;28;20457;-71
2023/09/11 07:21:26;;;;;;;57.20;3.63;;;;;;;;;;4953507;28;20460;-71
2023/09/11 07:23:53;;;;;;;57.67;3.70;;;;;;;;;;4953819;28;20459;-71
2023/09/11 07:26:20;;;;;;;57.07;3.20;;;;;;;;;;4954026;28;20477;-71
2023/09/11 07:28:54;;;;;;;57.60;3.37;;;;;;;;;;4954030;28;20503;-71
2023/09/11 07:31:22;;;;;;;57.10;3.33;;;;;;;;;;4953681;28;20512;-71
2023/09/11 07:33:50;;;;;;;56.77;3.10;;;;;;;;;;4934545;29;20450;-71
2023/09/11 07:36:18;;;;;;;57.40;4.80;;;;;;;;;;4934099;29;20469;-71
2023/09/11 07:38:45;;;;;;;57.67;3.43;;;;;;;;;;4934069;29;20480;-70
2023/09/11 07:41:12;;;;;;;56.77;2.67;;;;;;;;;;4934300;29;20513;-71
2023/09/11 07:43:39;;;;;;;57.10;3.33;;;;;;;;;;4933978;29;20486;-71
2023/09/11 07:46:06;;;;;;;56.87;2.73;;;;;;;;;;4934017;29;20489;-71
2023/09/11 07:48:35;;;;;;;57.60;3.50;;;;;;;;;;4934436;29;20823;-71
2023/09/11 07:51:02;;;;;;;57.07;3.57;;;;;;;;;;4934198;29;20530;-72
2023/09/11 07:53:30;;;;;;;57.10;3.40;;;;;;;;;;4936239;29;20450;-69
2023/09/11 07:55:57;;;;;;;57.00;2.97;;;;;;;;;;4936171;29;20536;-70
2023/09/11 07:58:24;;;;;;;57.00;3.00;;;;;;;;;;4936488;29;20461;-71
2023/09/11 08:00:51;;;;;;;57.23;2.93;;;;;;;;;;4936897;29;20454;-70
2023/09/11 08:03:18;;;;;;;57.40;3.80;;;;;;;;;;4936564;29;20493;-71
2023/09/11 08:05:47;;;;;;;58.20;2.73;;;;;;;;;;4936468;29;20456;-69
2023/09/11 08:08:14;;;;;;;57.30;3.90;;;;;;;;;;4936358;29;20955;-71
2023/09/11 08:10:41;;;;;;;56.73;2.37;;;;;;;;;;4946854;29;20452;-71
2023/09/11 08:13:08;;;;;;;56.50;2.50;;;;;;;;;;4955585;28;20882;-71
2023/09/11 08:15:35;;;;;;;57.47;3.37;;;;;;;;;;4955647;28;20453;-72
2023/09/11 08:18:02;;;;;;;57.10;2.67;;;;;;;;;;4955788;28;20449;-72
2023/09/11 08:20:29;;;;;;;56.77;2.80;;;;;;;;;;4955765;28;20457;-71
2023/09/11 08:22:58;;;;;;;57.37;3.87;;;;;;;;;;4955293;28;20503;-71
2023/09/11 08:25:25;;;;;;;56.93;2.83;;;;;;;;;;4955152;28;20449;-70
2023/09/11 08:27:53;;;;;;;57.50;3.40;;;;;;;;;;4951069;28;20484;-70
2023/09/11 08:30:20;;;;;;;58.40;3.20;;;;;;;;;;4943251;29;20528;-70
2023/09/11 08:32:47;;;;;;;56.73;2.43;;;;;;;;;;4943550;29;20456;-71
2023/09/11 08:35:14;;;;;;;57.40;2.40;;;;;;;;;;4939730;28;20933;-71
2023/09/11 08:37:42;;;;;;;57.07;3.17;;;;;;;;;;4947429;28;21017;-71
2023/09/11 08:40:11;;;;;;;56.90;3.10;;;;;;;;;;4938949;29;20544;-71
2023/09/11 08:42:38;;;;;;;56.80;2.33;;;;;;;;;;4938801;29;20493;-70
2023/09/11 08:45:05;;;;;;;56.90;2.53;;;;;;;;;;4949529;29;20813;-71
2023/09/11 08:47:34;;;;;;;59.87;2.93;;;;;;;;;;4949528;28;20477;-71
2023/09/11 08:50:05;;;;;;;58.73;3.00;;;;;;;;;;4945013;28;20981;-71
2023/09/11 08:52:33;;;;;;;57.37;2.50;;;;;;;;;;4938502;29;20449;-71
2023/09/11 08:55:03;;;;;;;57.03;2.37;;;;;;;;;;4938314;29;20456;-72
2023/09/11 08:57:34;;;;;;;57.27;2.57;;;;;;;;;;4954391;29;20471;-72
2023/09/11 09:00:04;;;;;;;56.47;2.40;;;;;;;;;;4957075;28;20457;-72
2023/09/11 09:02:33;;;;;;;56.80;2.53;;;;;;;;;;4957652;28;20476;-71
2023/09/11 09:05:03;;;;;;;57.27;2.70;;;;;;;;;;4958160;28;20457;-71
2023/09/11 09:07:31;;;;;;;56.30;2.57;;;;;;;;;;4956976;28;20509;-72
2023/09/11 09:09:59;;;;;;;56.47;2.97;;;;;;;;;;4957213;28;20463;-72
2023/09/11 09:12:26;;;;;;;56.77;3.50;;;;;;;;;;4957271;28;20449;-72
2023/09/11 09:14:55;;;;;;;57.07;3.30;;;;;;;;;;4959001;28;20459;-72
2023/09/11 09:17:22;;;;;;;56.70;2.63;;;;;;;;;;4969004;28;20536;-72
2023/09/11 09:19:49;;;;;;;56.80;2.20;;;;;;;;;;4962738;28;20508;-72
2023/09/11 09:22:18;;;;;;;56.97;2.53;;;;;;;;;;4959335;28;20536;-72
2023/09/11 09:24:49;;;;;;;56.07;2.30;;;;;;;;;;4960917;28;20830;-70
2023/09/11 09:27:16;;;;;;;57.40;3.40;;;;;;;;;;4967133;28;20556;-70
2023/09/11 09:29:43;;;;;;;56.77;2.73;;;;;;;;;;4970786;28;20457;-71
2023/09/11 09:32:12;;;;;;;56.87;3.17;;;;;;;;;;4968868;28;20453;-71
2023/09/11 09:34:43;;;;;;;56.43;2.20;;;;;;;;;;4970239;28;20467;-71
2023/09/11 09:37:16;;;;;;;56.60;2.10;;;;;;;;;;4969701;28;20465;-68
2023/09/11 09:39:44;;;;;;;55.90;2.50;;;;;;;;;;4969648;28;20472;-68
2023/09/11 09:42:12;;;;;;;56.67;3.10;;;;;;;;;;4969643;28;20445;-70
2023/09/11 09:44:40;;;;;;;56.70;2.73;;;;;;;;;;4968000;28;20453;-69
2023/09/11 09:47:08;;;;;;;56.80;3.03;;;;;;;;;;4967621;28;20475;-69
2023/09/11 09:49:44;;;;;;;56.57;3.10;;;;;;;;;;4968926;28;20489;-69
2023/09/11 09:52:11;;;;;;;56.50;2.80;;;;;;;;;;4968715;28;20455;-70
2023/09/11 09:54:42;;;;;;;57.20;2.70;;;;;;;;;;4968454;28;20552;-70
2023/09/11 09:57:11;;;;;;;57.90;2.77;;;;;;;;;;4970583;28;20485;-70
2023/09/11 09:59:38;;;;;;;57.00;2.50;;;;;;;;;;4970193;28;20453;-69
2023/09/11 10:02:05;;;;;;;56.23;2.20;;;;;;;;;;4970044;28;20512;-70
2023/09/11 10:04:32;;;;;;;56.60;2.50;;;;;;;;;;4970650;28;20472;-70
2023/09/11 10:07:01;;;;;;;58.20;3.00;;;;;;;;;;4970592;28;20744;-70
2023/09/11 10:09:28;;;;;;;56.17;2.50;;;;;;;;;;4970116;28;20588;-70
2023/09/11 10:11:55;;;;;;;55.90;2.20;;;;;;;;;;4948020;29;20611;-71
2023/09/11 10:14:22;;;;;;;56.40;2.93;;;;;;;;;;4949045;29;20456;-71
2023/09/11 10:16:50;;;;;;;55.53;2.33;;;;;;;;;;4948477;29;20470;-72
2023/09/11 10:19:17;;;;;;;55.87;3.00;;;;;;;;;;4944732;29;20464;-70
2023/09/11 10:21:44;;;;;;;55.90;2.87;;;;;;;;;;4937401;29;20807;-71
2023/09/11 10:24:13;;;;;;;58.70;2.90;;;;;;;;;;4937919;29;20490;-72
2023/09/11 10:26:45;;;;;;;57.20;3.17;;;;;;;;;;4940123;29;20477;-72
2023/09/11 10:29:12;;;;;;;55.17;2.37;;;;;;;;;;4945394;29;20557;-72
2023/09/11 10:31:44;;;;;;;55.30;2.73;;;;;;;;;;4950051;28;20449;-72
2023/09/11 10:34:12;;;;;;;55.90;3.17;;;;;;;;;;4943211;29;20449;-73
2023/09/11 10:36:40;;;;;;;55.13;2.87;;;;;;;;;;4934922;29;20536;-72
2023/09/11 10:39:10;;;;;;;55.13;2.90;;;;;;;;;;4940114;29;20465;-73
2023/09/11 10:41:38;;;;;;;55.07;2.90;;;;;;;;;;4944924;28;20454;-72
2023/09/11 10:44:06;;;;;;;55.43;3.00;;;;;;;;;;4935118;29;20488;-72
2023/09/11 10:46:36;;;;;;;56.17;3.60;;;;;;;;;;4951036;29;20920;-72
2023/09/11 10:49:14;;;;;;;56.43;3.37;;;;;;;;;;4949905;28;20454;-71
2023/09/11 10:51:41;;;;;;;55.30;3.00;;;;;;;;;;4935134;29;20449;-72
2023/09/11 10:54:09;;;;;;;56.60;3.60;;;;;;;;;;4934885;29;20454;-73
2023/09/11 10:56:36;;;;;;;55.60;3.17;;;;;;;;;;4934258;29;20481;-71
2023/09/11 10:59:05;;;;;;;54.40;2.80;;;;;;;;;;4934185;29;20462;-71
2023/09/11 11:01:33;;;;;;;55.00;3.20;;;;;;;;;;4934613;29;20494;-69
2023/09/11 11:04:02;;;;;;;54.67;2.67;;;;;;;;;;4934434;29;20536;-72
2023/09/11 11:06:29;;;;;;;54.70;2.60;;;;;;;;;;4933993;29;20485;-71
2023/09/11 11:08:56;;;;;;;54.07;2.50;;;;;;;;;;4953947;29;20471;-72
2023/09/11 11:11:27;;;;;;;54.70;2.70;;;;;;;;;;4954136;28;20452;-73
2023/09/11 11:14:18;;;;;;;55.27;2.90;;;;;;;;;;4954067;28;20488;-73
2023/09/11 11:16:56;;;;;;;54.20;2.80;;;;;;;;;;4953435;28;20480;-72
2023/09/11 11:19:26;;;;;;;55.40;3.20;;;;;;;;;;4953467;28;20452;-73
2023/09/11 11:21:53;;;;;;;54.30;2.30;;;;;;;;;;4953331;28;20463;-72
2023/09/11 11:24:23;;;;;;;54.40;2.50;;;;;;;;;;4953604;28;20491;-73
2023/09/11 11:26:50;;;;;;;54.90;2.60;;;;;;;;;;4953208;28;20555;-72
2023/09/11 11:29:19;;;;;;;53.97;2.37;;;;;;;;;;4952869;28;20454;-71
2023/09/11 11:31:47;;;;;;;54.20;2.50;;;;;;;;;;4952878;28;20779;-73
2023/09/11 11:34:16;;;;;;;54.13;2.60;;;;;;;;;;4953391;28;20453;-73
2023/09/11 11:36:43;;;;;;;53.97;2.50;;;;;;;;;;4952634;28;20468;-73
2023/09/11 11:39:10;;;;;;;55.07;2.80;;;;;;;;;;4952842;28;20523;-73
2023/09/11 11:41:38;;;;;;;54.30;2.63;;;;;;;;;;4952925;28;20479;-73
2023/09/11 11:44:05;;;;;;;53.77;2.60;;;;;;;;;;4952856;28;20488;-72
2023/09/11 11:46:33;;;;;;;55.43;3.00;;;;;;;;;;4952879;28;20468;-73
2023/09/11 11:49:01;;;;;;;54.10;2.10;;;;;;;;;;4953253;28;20449;-72
2023/09/11 11:51:28;;;;;;;54.10;2.30;;;;;;;;;;4953978;28;20448;-73
2023/09/11 11:53:55;;;;;;;53.87;2.43;;;;;;;;;;4952903;28;20445;-72
2023/09/11 11:56:22;;;;;;;54.20;2.30;;;;;;;;;;4952474;28;20469;-72
2023/09/11 11:58:50;;;;;;;54.30;2.57;;;;;;;;;;4952584;28;20445;-73
2023/09/11 12:01:17;;;;;;;54.27;2.23;;;;;;;;;;4953062;28;20445;-72
2023/09/11 12:03:49;;;;;;;54.47;2.50;;;;;;;;;;4952633;28;20485;-73
2023/09/11 12:06:16;;;;;;;54.40;2.60;;;;;;;;;;4952410;28;20465;-71
2023/09/11 12:08:45;;;;;;;54.33;2.60;;;;;;;;;;4952595;28;20457;-72
2023/09/11 12:11:12;;;;;;;54.07;2.63;;;;;;;;;;4953778;28;20475;-72
2023/09/11 12:13:39;;;;;;;54.00;2.83;;;;;;;;;;4956453;28;20443;-73
2023/09/11 12:16:07;;;;;;;54.30;2.77;;;;;;;;;;4955778;28;20476;-72
2023/09/11 12:18:37;;;;;;;54.00;2.63;;;;;;;;;;4956387;28;20487;-73
2023/09/11 12:21:07;;;;;;;54.30;2.90;;;;;;;;;;4956139;28;20911;-73
2023/09/11 12:23:34;;;;;;;53.90;2.67;;;;;;;;;;4956281;28;20484;-73
2023/09/11 12:26:02;;;;;;;53.43;2.43;;;;;;;;;;4936394;29;20474;-72
2023/09/11 12:28:30;;;;;;;53.27;2.47;;;;;;;;;;4943634;29;20498;-72
2023/09/11 12:30:57;;;;;;;53.77;3.00;;;;;;;;;;4953297;28;20844;-71
2023/09/11 12:33:25;;;;;;;54.50;2.77;;;;;;;;;;4943046;29;20451;-72
2023/09/11 12:35:53;;;;;;;53.43;2.20;;;;;;;;;;4945202;28;20456;-73
2023/09/11 12:38:22;;;;;;;54.57;2.70;;;;;;;;;;4945577;29;21176;-73
2023/09/11 12:40:49;;;;;;;53.37;2.20;;;;;;;;;;4947915;28;20487;-73
2023/09/11 12:43:17;;;;;;;54.27;2.70;;;;;;;;;;4942320;28;20564;-73
2023/09/11 12:45:43;;;;;;;54.17;2.57;;;;;;;;;;4936260;29;20950;-73
2023/09/11 12:48:10;;;;;;;54.20;2.40;;;;;;;;;;4936360;29;20548;-72
2023/09/11 12:50:39;;;;;;;54.30;2.70;;;;;;;;;;4936384;29;20449;-69
2023/09/11 12:53:06;;;;;;;54.10;2.40;;;;;;;;;;4936501;29;20449;-72
2023/09/11 12:55:35;;;;;;;54.97;3.40;;;;;;;;;;4936162;29;20968;-73
2023/09/11 12:58:02;;;;;;;54.30;2.30;;;;;;;;;;4955284;29;20447;-73
2023/09/11 13:00:30;;;;;;;54.67;2.70;;;;;;;;;;4955414;28;20456;-73
2023/09/11 13:02:57;;;;;;;54.20;2.60;;;;;;;;;;4955242;28;20464;-74
2023/09/11 13:05:24;;;;;;;54.77;2.80;;;;;;;;;;4955160;28;20492;-73
2023/09/11 13:07:51;;;;;;;54.10;2.10;;;;;;;;;;4954956;28;20479;-71
2023/09/11 13:10:20;;;;;;;54.80;2.57;;;;;;;;;;4955374;28;20453;-73
2023/09/11 13:12:48;;;;;;;53.57;2.60;;;;;;;;;;4955250;28;21033;-73
2023/09/11 13:15:16;;;;;;;54.07;2.37;;;;;;;;;;4955075;28;20453;-74
2023/09/11 13:17:43;;;;;;;54.27;2.60;;;;;;;;;;4946416;28;20470;-73
2023/09/11 13:20:10;;;;;;;54.13;2.60;;;;;;;;;;4940426;28;20501;-73
2023/09/11 13:22:37;;;;;;;53.27;2.63;;;;;;;;;;4935839;29;20450;-73
2023/09/11 13:25:05;;;;;;;53.37;2.50;;;;;;;;;;4935750;29;20489;-73
2023/09/11 13:27:32;;;;;;;54.00;2.50;;;;;;;;;;4935535;29;20477;-73
2023/09/11 13:30:00;;;;;;;53.70;2.60;;;;;;;;;;4935753;29;20450;-73
2023/09/11 13:32:27;;;;;;;54.60;2.70;;;;;;;;;;4935886;29;20464;-73
2023/09/11 13:34:54;;;;;;;54.07;2.50;;;;;;;;;;4935834;29;20532;-73
2023/09/11 13:37:21;;;;;;;53.43;2.03;;;;;;;;;;4935485;29;20474;-72
2023/09/11 13:39:48;;;;;;;54.60;2.17;;;;;;;;;;4935400;29;20461;-73
2023/09/11 13:42:18;;;;;;;54.50;2.40;;;;;;;;;;4935645;29;20460;-73
2023/09/11 13:44:45;;;;;;;54.77;2.30;;;;;;;;;;4935250;29;20541;-73
2023/09/11 13:47:13;;;;;;;54.10;2.20;;;;;;;;;;4941657;29;20491;-72
2023/09/11 13:49:40;;;;;;;54.33;2.53;;;;;;;;;;4946133;28;20790;-69
2023/09/11 13:52:07;;;;;;;55.80;3.27;;;;;;;;;;4942801;28;20460;-73
2023/09/11 13:54:34;;;;;;;54.90;2.50;;;;;;;;;;4934671;29;20446;-73
2023/09/11 13:57:02;;;;;;;54.37;2.10;;;;;;;;;;4934118;29;20462;-73
2023/09/11 13:59:29;;;;;;;54.47;2.50;;;;;;;;;;4934501;29;20942;-72
2023/09/11 14:01:56;;;;;;;54.70;2.30;;;;;;;;;;4934428;29;20445;-73
2023/09/11 14:04:24;;;;;;;54.30;2.20;;;;;;;;;;4948187;29;20585;-73
2023/09/11 14:06:52;;;;;;;54.40;2.20;;;;;;;;;;4953674;28;20473;-72
2023/09/11 14:09:19;;;;;;;54.57;2.33;;;;;;;;;;4954323;28;20453;-71
2023/09/11 14:11:46;;;;;;;54.50;2.13;;;;;;;;;;4954179;28;20453;-72
2023/09/11 14:14:13;;;;;;;54.37;2.23;;;;;;;;;;4953947;28;20460;-70
2023/09/11 14:16:40;;;;;;;54.50;2.30;;;;;;;;;;4953815;28;20475;-72
2023/09/11 14:19:08;;;;;;;54.70;2.40;;;;;;;;;;4934913;29;20454;-71
2023/09/11 14:21:36;;;;;;;54.50;2.50;;;;;;;;;;4934743;29;20965;-73
2023/09/11 14:24:04;;;;;;;54.80;2.17;;;;;;;;;;4934536;29;20486;-70
2023/09/11 14:26:31;;;;;;;55.37;2.40;;;;;;;;;;4934276;29;20485;-71
2023/09/11 14:28:58;;;;;;;54.60;2.67;;;;;;;;;;4934842;29;20514;-71
2023/09/11 14:31:27;;;;;;;55.07;2.73;;;;;;;;;;4934841;29;20461;-72
2023/09/11 14:33:54;;;;;;;54.87;2.50;;;;;;;;;;4933854;29;20462;-71
2023/09/11 14:36:21;;;;;;;55.07;2.40;;;;;;;;;;4935933;28;20703;-71
2023/09/11 14:38:49;;;;;;;54.87;2.70;;;;;;;;;;4942120;29;20468;-72